createdAt,value
2023-05-05T00:00:45.842Z,11.53
2023-05-05T00:03:10.657Z,11.58
2023-05-05T00:05:46.120Z,11.65
2023-05-05T00:08:21.702Z,11.72
2023-05-05T00:10:57.550Z,11.81
2023-05-05T00:13:32.176Z,11.90
2023-05-05T00:15:59.418Z,12.00
2023-05-05T00:18:34.950Z,12.07
2023-05-05T00:21:10.071Z,12.09
2023-05-05T00:23:34.426Z,12.16
2023-05-05T00:26:12.542Z,12.21
2023-05-05T00:28:47.478Z,12.25
2023-05-05T00:31:14.851Z,12.35
2023-05-05T00:33:48.552Z,12.37
2023-05-05T00:36:18.466Z,12.33
2023-05-05T00:38:52.179Z,12.26
2023-05-05T00:41:16.874Z,12.21
2023-05-05T00:43:45.810Z,12.16
2023-05-05T00:46:27.254Z,12.13
2023-05-05T00:49:02.469Z,12.16
2023-05-05T00:51:36.454Z,12.11
2023-05-05T00:54:09.023Z,12.05
2023-05-05T00:56:43.609Z,11.95
2023-05-05T00:59:17.356Z,11.85
2023-05-05T01:01:53.988Z,11.79
2023-05-05T01:04:30.194Z,11.74
2023-05-05T01:07:07.063Z,11.67
2023-05-05T01:10:00.820Z,11.59
2023-05-05T01:12:53.699Z,11.56
2023-05-05T01:15:25.664Z,11.58
2023-05-05T01:18:05.206Z,11.59
2023-05-05T01:20:52.218Z,11.59
2023-05-05T01:23:13.115Z,11.57
2023-05-05T01:26:09.961Z,11.55
2023-05-05T01:28:54.214Z,11.52
2023-05-05T01:31:52.748Z,11.41
2023-05-05T01:34:13.421Z,11.29
2023-05-05T01:36:50.070Z,11.21
2023-05-05T01:39:20.053Z,11.11
2023-05-05T01:41:41.511Z,11.04
2023-05-05T01:44:08.340Z,10.99
2023-05-05T01:46:37.112Z,10.94
2023-05-05T01:49:13.058Z,10.89
2023-05-05T01:51:34.136Z,10.85
2023-05-05T01:56:30.511Z,10.85
2023-05-05T01:59:07.922Z,10.86
2023-05-05T02:01:45.934Z,10.84
2023-05-05T02:04:10.898Z,10.82
2023-05-05T02:06:37.306Z,10.78
2023-05-05T02:09:11.088Z,10.73
2023-05-05T02:11:46.706Z,10.69
2023-05-05T02:14:21.281Z,10.68
2023-05-05T02:16:58.803Z,10.66
2023-05-05T02:19:39.744Z,10.65
2023-05-05T02:22:02.878Z,10.65
2023-05-05T02:24:27.867Z,10.65
2023-05-05T02:26:58.076Z,10.66
2023-05-05T02:29:57.456Z,10.67
2023-05-05T02:32:20.656Z,10.65
2023-05-05T02:34:43.736Z,10.65
2023-05-05T02:37:21.430Z,10.67
2023-05-05T02:41:11.917Z,10.66
2023-05-05T02:42:51.153Z,10.69
2023-05-05T02:45:23.824Z,10.69
2023-05-05T02:48:00.493Z,10.69
2023-05-05T02:50:30.154Z,10.69
2023-05-05T02:52:52.873Z,10.66
2023-05-05T02:58:12.411Z,10.66
2023-05-05T03:00:36.724Z,10.67
2023-05-05T03:03:15.004Z,10.69
2023-05-05T03:05:47.051Z,10.67
2023-05-05T03:08:21.003Z,10.68
2023-05-05T03:10:45.684Z,10.69
2023-05-05T03:13:23.832Z,10.69
2023-05-05T03:15:48.284Z,10.69
2023-05-05T03:18:18.826Z,10.68
2023-05-05T03:20:47.350Z,10.67
2023-05-05T03:23:04.239Z,10.64
2023-05-05T03:25:44.547Z,10.56
2023-05-05T03:28:09.650Z,10.50
2023-05-05T03:30:35.261Z,10.45
2023-05-05T03:32:52.656Z,10.40
2023-05-05T03:35:21.113Z,10.37
2023-05-05T03:37:38.757Z,10.35
2023-05-05T03:39:57.208Z,10.33
2023-05-05T03:42:14.451Z,10.27
2023-05-05T03:44:45.035Z,10.21
2023-05-05T03:47:28.031Z,10.21
2023-05-05T03:50:01.839Z,10.22
2023-05-05T03:52:27.520Z,10.22
2023-05-05T03:54:55.373Z,10.24
2023-05-05T03:57:20.461Z,10.27
2023-05-05T03:59:55.175Z,10.28
2023-05-05T04:02:13.674Z,10.30
2023-05-05T04:04:49.565Z,10.29
2023-05-05T04:07:16.102Z,10.30
2023-05-05T04:09:35.304Z,10.31
2023-05-05T04:11:58.541Z,10.32
2023-05-05T04:14:33.076Z,10.31
2023-05-05T04:16:58.409Z,10.28
2023-05-05T04:19:18.746Z,10.27
2023-05-05T04:21:44.607Z,10.29
2023-05-05T04:24:24.266Z,10.31
2023-05-05T04:26:57.465Z,10.33
2023-05-05T04:29:23.142Z,10.31
2023-05-05T04:31:57.402Z,10.29
2023-05-05T04:34:31.782Z,10.28
2023-05-05T04:37:05.129Z,10.25
2023-05-05T04:39:39.915Z,10.22
2023-05-05T04:41:58.964Z,10.20
2023-05-05T04:44:33.604Z,10.16
2023-05-05T04:47:08.252Z,10.12
2023-05-05T04:49:28.694Z,10.07
2023-05-05T04:51:47.893Z,10.02
2023-05-05T04:54:11.851Z,9.97
2023-05-05T04:56:39.156Z,9.92
2023-05-05T04:59:01.966Z,9.89
2023-05-05T05:01:23.410Z,9.89
2023-05-05T05:03:43.191Z,9.86
2023-05-05T05:06:03.556Z,9.87
2023-05-05T05:08:27.167Z,9.88
2023-05-05T05:10:52.138Z,9.91
2023-05-05T05:13:12.849Z,9.92
2023-05-05T05:15:44.124Z,9.93
2023-05-05T05:18:08.468Z,9.90
2023-05-05T05:20:42.178Z,9.90
2023-05-05T05:22:56.494Z,9.89
2023-05-05T05:25:27.759Z,9.89
2023-05-05T05:28:02.260Z,9.90
2023-05-05T05:30:32.169Z,9.92
2023-05-05T05:32:51.592Z,9.91
2023-05-05T05:35:13.454Z,9.91
2023-05-05T05:37:38.979Z,9.90
2023-05-05T05:39:58.053Z,9.89
2023-05-05T05:42:12.292Z,9.89
2023-05-05T05:44:46.705Z,9.90
2023-05-05T05:47:14.334Z,9.90
2023-05-05T05:49:48.579Z,9.90
2023-05-05T05:52:10.180Z,9.90
2023-05-05T05:54:33.932Z,9.90
2023-05-05T05:56:53.612Z,9.89
2023-05-05T05:59:28.391Z,9.90
2023-05-05T06:01:56.071Z,9.87
2023-05-05T06:04:29.790Z,9.88
2023-05-05T06:06:44.131Z,9.90
2023-05-05T06:09:00.816Z,9.87
2023-05-05T06:11:15.509Z,9.87
2023-05-05T06:13:33.746Z,9.88
2023-05-05T06:16:04.824Z,9.89
2023-05-05T06:18:39.929Z,9.90
2023-05-05T06:21:03.277Z,9.90
2023-05-05T06:23:25.315Z,9.91
2023-05-05T06:25:59.999Z,9.92
2023-05-05T06:28:35.701Z,9.91
2023-05-05T06:31:11.298Z,9.90
2023-05-05T06:33:39.386Z,9.89
2023-05-05T06:36:13.968Z,9.88
2023-05-05T06:38:39.689Z,9.88
2023-05-05T06:41:07.953Z,9.88
2023-05-05T06:43:44.142Z,9.89
2023-05-05T06:46:18.140Z,9.89
2023-05-05T06:48:48.331Z,9.90
2023-05-05T06:51:23.909Z,9.91
2023-05-05T06:53:57.596Z,9.90
2023-05-05T06:56:26.347Z,9.89
2023-05-05T06:58:53.741Z,9.88
2023-05-05T07:01:28.031Z,9.87
2023-05-05T07:04:03.025Z,9.87
2023-05-05T07:06:30.652Z,9.84
2023-05-05T07:09:05.546Z,9.84
2023-05-05T07:11:39.012Z,9.84
2023-05-05T07:14:01.804Z,9.84
2023-05-05T07:16:38.229Z,9.83
2023-05-05T07:19:12.468Z,9.82
2023-05-05T07:21:48.385Z,9.81
2023-05-05T07:24:23.597Z,9.81
2023-05-05T07:26:59.615Z,9.81
2023-05-05T07:29:34.655Z,9.82
2023-05-05T07:32:09.909Z,9.83
2023-05-05T07:34:43.598Z,9.82
2023-05-05T07:37:17.987Z,9.81
2023-05-05T07:39:54.097Z,9.81
2023-05-05T07:42:28.883Z,9.80
2023-05-05T07:45:05.445Z,9.82
2023-05-05T07:47:39.249Z,9.82
2023-05-05T07:50:18.219Z,9.81
2023-05-05T07:53:02.535Z,9.81
2023-05-05T07:55:37.272Z,9.81
2023-05-05T07:58:12.140Z,9.82
2023-05-05T08:00:46.856Z,9.83
2023-05-05T08:03:25.423Z,9.84
2023-05-05T08:05:59.773Z,9.87
2023-05-05T08:08:28.213Z,9.88
2023-05-05T08:11:03.893Z,9.89
2023-05-05T08:13:26.712Z,9.89
2023-05-05T08:16:02.234Z,9.85
2023-05-05T08:18:38.715Z,9.84
2023-05-05T08:21:02.403Z,9.83
2023-05-05T08:23:36.653Z,9.83
2023-05-05T08:26:03.489Z,9.83
2023-05-05T08:28:27.588Z,9.82
2023-05-05T08:31:01.105Z,9.82
2023-05-05T08:33:35.600Z,9.80
2023-05-05T08:36:11.617Z,9.79
2023-05-05T08:38:46.292Z,9.80
2023-05-05T08:41:12.600Z,9.83
2023-05-05T08:43:51.676Z,9.85
2023-05-05T08:46:29.307Z,9.88
2023-05-05T08:49:04.973Z,9.90
2023-05-05T08:51:45.543Z,9.90
2023-05-05T08:54:13.506Z,9.89
2023-05-05T08:56:51.119Z,9.88
2023-05-05T08:59:18.823Z,9.89
2023-05-05T09:04:43.288Z,9.88
2023-05-05T09:07:10.548Z,9.90
2023-05-05T09:09:46.575Z,9.91
2023-05-05T09:12:22.357Z,9.91
2023-05-05T09:14:49.274Z,9.91
2023-05-05T09:17:35.176Z,9.88
2023-05-05T09:20:21.593Z,9.83
2023-05-05T09:22:59.249Z,9.80
2023-05-05T09:25:25.359Z,9.79
2023-05-05T09:27:59.698Z,9.78
2023-05-05T09:30:28.228Z,9.77
2023-05-05T09:32:58.531Z,9.77
2023-05-05T09:35:24.157Z,9.79
2023-05-05T09:38:01.664Z,9.80
2023-05-05T09:40:29.535Z,9.78
2023-05-05T09:43:08.691Z,9.75
2023-05-05T09:45:34.894Z,9.73
2023-05-05T09:48:11.095Z,9.73
2023-05-05T09:50:52.645Z,9.73
2023-05-05T09:53:28.115Z,9.73
2023-05-05T09:56:04.680Z,9.70
2023-05-05T09:58:39.950Z,9.69
2023-05-05T10:01:27.970Z,9.68
2023-05-05T10:04:03.203Z,9.68
2023-05-05T10:06:50.801Z,9.68
2023-05-05T10:09:25.013Z,9.69
2023-05-05T10:12:02.808Z,9.71
2023-05-05T10:14:30.486Z,9.72
2023-05-05T10:17:01.514Z,9.76
2023-05-05T10:19:39.300Z,9.78
2023-05-05T10:25:00.580Z,9.81
2023-05-05T10:27:37.718Z,9.81
2023-05-05T10:30:21.039Z,9.81
2023-05-05T10:33:07.973Z,9.82
2023-05-05T10:35:53.422Z,9.82
2023-05-05T10:38:32.734Z,9.83
2023-05-05T10:43:45.723Z,9.85
2023-05-05T10:46:22.213Z,9.87
2023-05-05T10:49:05.139Z,9.88
2023-05-05T10:51:51.480Z,9.88
2023-05-05T10:54:31.656Z,9.86
2023-05-05T10:57:09.706Z,9.85
2023-05-05T10:59:53.004Z,9.84
2023-05-05T11:02:28.448Z,9.84
2023-05-05T11:05:27.352Z,9.83
2023-05-05T11:08:30.430Z,9.82
2023-05-05T11:11:06.513Z,9.83
2023-05-05T11:13:42.242Z,9.84
2023-05-05T11:16:06.535Z,9.84
2023-05-05T11:21:33.572Z,9.87
2023-05-05T11:24:32.645Z,9.88
2023-05-05T11:27:07.100Z,9.90
2023-05-05T11:30:13.505Z,9.92
2023-05-05T11:33:07.629Z,9.92
2023-05-05T11:36:05.989Z,9.92
2023-05-05T11:38:52.173Z,9.92
2023-05-05T11:41:39.080Z,9.90
2023-05-05T11:44:19.275Z,9.87
2023-05-05T11:47:22.720Z,9.86
2023-05-05T11:49:58.618Z,9.85
2023-05-05T11:52:21.581Z,9.85
2023-05-05T11:54:58.549Z,9.86
2023-05-05T11:57:36.657Z,9.84
2023-05-05T12:00:02.182Z,9.83
2023-05-05T12:02:36.839Z,9.83
2023-05-05T12:05:13.166Z,9.85
2023-05-05T12:07:49.190Z,9.86
2023-05-05T12:10:14.744Z,9.86
2023-05-05T12:12:52.059Z,9.87
2023-05-05T12:15:17.609Z,9.88
2023-05-05T12:17:49.168Z,9.89
2023-05-05T12:20:32.287Z,9.90
2023-05-05T12:23:09.408Z,9.89
2023-05-05T12:25:47.056Z,9.87
2023-05-05T12:28:12.527Z,9.86
2023-05-05T12:30:36.957Z,9.85
2023-05-05T12:33:12.220Z,9.85
2023-05-05T12:35:47.421Z,9.85
2023-05-05T12:38:23.911Z,9.84
2023-05-05T12:40:58.278Z,9.83
2023-05-05T12:43:36.055Z,9.84
2023-05-05T12:46:17.305Z,9.84
2023-05-05T12:49:05.874Z,9.84
2023-05-05T12:51:42.782Z,9.83
2023-05-05T12:54:18.682Z,9.81
2023-05-05T12:56:58.406Z,9.78
2023-05-05T12:59:44.967Z,9.74
2023-05-05T13:02:21.275Z,9.74
2023-05-05T13:05:01.189Z,9.73
2023-05-05T13:07:35.675Z,9.73
2023-05-05T13:10:19.112Z,9.73
2023-05-05T13:12:53.762Z,9.72
2023-05-05T13:15:29.153Z,9.72
2023-05-05T13:18:07.578Z,9.73
2023-05-05T13:20:43.758Z,9.72
2023-05-05T13:23:17.773Z,9.70
2023-05-05T13:25:52.642Z,9.69
2023-05-05T13:31:09.903Z,9.67
2023-05-05T13:33:44.465Z,9.66
2023-05-05T13:36:18.913Z,9.66
2023-05-05T13:38:52.246Z,9.68
2023-05-05T13:41:28.164Z,9.69
2023-05-05T13:44:02.563Z,9.70
2023-05-05T13:46:36.682Z,9.71
2023-05-05T13:49:11.359Z,9.71
2023-05-05T13:51:36.736Z,9.70
2023-05-05T13:54:11.695Z,9.69
2023-05-05T13:56:48.105Z,9.69
2023-05-05T13:59:27.804Z,9.71
2023-05-05T14:02:02.581Z,9.73
2023-05-05T14:04:37.177Z,9.75
2023-05-05T14:07:12.040Z,9.76
2023-05-05T14:09:46.830Z,9.77
2023-05-05T14:12:21.520Z,9.78
2023-05-05T14:14:57.386Z,9.79
2023-05-05T14:17:31.479Z,9.80
2023-05-05T14:20:09.466Z,9.81
2023-05-05T14:22:44.636Z,9.81
2023-05-05T14:25:21.382Z,9.82
2023-05-05T14:27:55.840Z,9.81
2023-05-05T14:30:32.174Z,9.77
2023-05-05T14:33:07.789Z,9.75
2023-05-05T14:35:42.592Z,9.74
2023-05-05T14:38:18.251Z,9.74
2023-05-05T14:40:52.990Z,9.70
2023-05-05T14:43:28.992Z,9.66
2023-05-05T14:46:00.239Z,9.63
2023-05-05T14:48:34.325Z,9.62
2023-05-05T14:51:10.003Z,9.62
2023-05-05T14:53:33.149Z,9.61
2023-05-05T14:56:08.794Z,9.61
2023-05-05T14:58:43.370Z,9.62
2023-05-05T15:01:07.054Z,9.65
2023-05-05T15:03:41.746Z,9.66
2023-05-05T15:06:16.302Z,9.62
2023-05-05T15:08:52.401Z,9.58
2023-05-05T15:14:17.607Z,9.59
2023-05-05T15:16:53.195Z,9.59
2023-05-05T15:19:28.533Z,9.58
2023-05-05T15:22:03.644Z,9.55
2023-05-05T15:24:39.142Z,9.53
2023-05-05T15:27:06.896Z,9.52
2023-05-05T15:29:43.426Z,9.50
2023-05-05T15:32:07.764Z,9.46
2023-05-05T15:34:30.471Z,9.47
2023-05-05T15:37:06.188Z,9.46
2023-05-05T15:39:31.948Z,9.46
2023-05-05T15:42:11.435Z,9.46
2023-05-05T15:44:45.440Z,9.49
2023-05-05T15:47:19.738Z,9.50
2023-05-05T15:52:44.427Z,9.55
2023-05-05T15:55:22.032Z,9.56
2023-05-05T15:57:56.966Z,9.57
2023-05-05T16:00:22.591Z,9.61
2023-05-05T16:02:57.234Z,9.65
2023-05-05T16:05:33.366Z,9.68
2023-05-05T16:08:10.819Z,9.67
2023-05-05T16:10:46.141Z,9.64
2023-05-05T16:13:22.723Z,9.68
2023-05-05T16:15:57.239Z,9.68
2023-05-05T16:18:30.463Z,9.68
2023-05-05T16:21:06.598Z,9.66
2023-05-05T16:23:41.722Z,9.64
2023-05-05T16:26:06.768Z,9.64
2023-05-05T16:28:42.075Z,9.67
2023-05-05T16:31:16.102Z,9.69
2023-05-05T16:33:51.116Z,9.69
2023-05-05T16:36:26.503Z,9.69
2023-05-05T16:39:00.010Z,9.65
2023-05-05T16:41:33.607Z,9.62
2023-05-05T16:44:08.829Z,9.62
2023-05-05T16:46:44.558Z,9.65
2023-05-05T16:49:19.958Z,9.64
2023-05-05T16:51:55.498Z,9.62
2023-05-05T16:54:30.764Z,9.61
2023-05-05T16:57:06.675Z,9.63
2023-05-05T16:59:44.161Z,9.66
2023-05-05T17:02:18.558Z,9.69
2023-05-05T17:04:54.737Z,9.72
2023-05-05T17:07:28.077Z,9.76
2023-05-05T17:10:03.812Z,9.80
2023-05-05T17:12:26.659Z,9.78
2023-05-05T17:15:01.370Z,9.72
2023-05-05T17:17:37.435Z,9.73
2023-05-05T17:20:14.448Z,9.75
2023-05-05T17:22:40.360Z,9.73
2023-05-05T17:25:10.401Z,9.75
2023-05-05T17:27:46.218Z,9.77
2023-05-05T17:30:09.246Z,9.79
2023-05-05T17:32:44.214Z,9.73
2023-05-05T17:35:08.438Z,9.70
2023-05-05T17:37:43.154Z,9.73
2023-05-05T17:40:21.783Z,9.77
2023-05-05T17:42:57.554Z,9.79
2023-05-05T17:45:33.136Z,9.81
2023-05-05T17:48:08.327Z,9.86
2023-05-05T17:50:43.747Z,9.91
2023-05-05T17:53:19.301Z,9.93
2023-05-05T17:55:54.714Z,9.94
2023-05-05T17:58:28.481Z,9.91
2023-05-05T18:01:03.578Z,9.94
2023-05-05T18:03:28.299Z,9.98
2023-05-05T18:06:04.082Z,10.02
2023-05-05T18:08:39.338Z,10.05
2023-05-05T18:11:13.835Z,10.04
2023-05-05T18:13:47.229Z,10.01
2023-05-05T18:16:22.247Z,9.94
2023-05-05T18:18:57.812Z,9.93
2023-05-05T18:21:33.358Z,9.92
2023-05-05T18:24:19.309Z,9.97
2023-05-05T18:26:56.128Z,10.09
2023-05-05T18:29:19.370Z,10.19
2023-05-05T18:31:55.760Z,10.25
2023-05-05T18:34:32.446Z,10.31
2023-05-05T18:37:07.966Z,10.38
2023-05-05T18:39:43.948Z,10.44
2023-05-05T18:42:09.032Z,10.55
2023-05-05T18:44:34.744Z,10.65
2023-05-05T18:46:59.427Z,10.71
2023-05-05T18:49:33.750Z,10.77
2023-05-05T18:52:10.603Z,10.83
2023-05-05T18:54:46.081Z,10.82
2023-05-05T18:57:20.972Z,10.86
2023-05-05T18:59:57.704Z,10.85
2023-05-05T19:02:34.510Z,10.85
2023-05-05T19:05:03.725Z,10.94
2023-05-05T19:07:43.282Z,11.03
2023-05-05T19:10:21.222Z,11.04
2023-05-05T19:12:54.788Z,11.07
2023-05-05T19:15:22.053Z,11.03
2023-05-05T19:17:58.585Z,11.08
2023-05-05T19:20:39.641Z,11.16
2023-05-05T19:23:14.381Z,11.24
2023-05-05T19:25:50.396Z,11.36
2023-05-05T19:28:26.957Z,11.39
2023-05-05T19:30:49.784Z,11.45
2023-05-05T19:33:13.748Z,11.61
2023-05-05T19:35:47.701Z,11.78
2023-05-05T19:38:24.689Z,11.95
2023-05-05T19:40:52.221Z,12.00
2023-05-05T19:43:27.018Z,12.06
2023-05-05T19:45:53.812Z,12.10
2023-05-05T19:48:29.538Z,12.19
2023-05-05T19:51:05.053Z,12.27
2023-05-05T19:53:41.095Z,12.34
2023-05-05T19:56:15.663Z,12.41
2023-05-05T19:59:08.318Z,12.40
2023-05-05T20:01:36.041Z,12.35
2023-05-05T20:04:01.778Z,12.39
2023-05-05T20:06:37.758Z,12.45
2023-05-05T20:09:11.890Z,12.51
2023-05-05T20:11:46.958Z,12.50
2023-05-05T20:14:23.759Z,12.55
2023-05-05T20:16:57.769Z,12.58
2023-05-05T20:19:32.302Z,12.60
2023-05-05T20:22:07.854Z,12.59
2023-05-05T20:24:31.151Z,12.51
2023-05-05T20:27:06.309Z,12.51
2023-05-05T20:29:42.404Z,12.52
2023-05-05T20:32:16.032Z,12.58
2023-05-05T20:34:50.702Z,12.66
2023-05-05T20:37:28.101Z,12.72
2023-05-05T20:40:03.413Z,12.73
2023-05-05T20:42:38.185Z,12.74
2023-05-05T20:45:15.381Z,12.78
2023-05-05T20:47:40.133Z,12.77
2023-05-05T20:50:15.270Z,12.77
2023-05-05T20:52:49.371Z,12.68
2023-05-05T20:55:23.275Z,12.71
2023-05-05T20:58:00.478Z,12.73
2023-05-05T21:00:23.416Z,12.74
2023-05-05T21:02:59.769Z,12.70
2023-05-05T21:05:27.960Z,12.62
2023-05-05T21:08:02.257Z,12.57
2023-05-05T21:10:37.990Z,12.45
2023-05-05T21:13:11.939Z,12.40
2023-05-05T21:15:41.349Z,12.43
2023-05-05T21:18:17.668Z,12.40
2023-05-05T21:20:52.718Z,12.46
2023-05-05T21:23:16.385Z,12.40
2023-05-05T21:25:50.688Z,12.40
2023-05-05T21:28:26.178Z,12.41
2023-05-05T21:31:19.821Z,12.43
2023-05-05T21:33:53.934Z,12.42
2023-05-05T21:36:28.504Z,12.39
2023-05-05T21:39:03.372Z,12.48
2023-05-05T21:41:26.552Z,12.56
2023-05-05T21:43:49.533Z,12.66
2023-05-05T21:46:23.879Z,12.72
2023-05-05T21:48:57.771Z,12.79
2023-05-05T21:51:23.896Z,12.88
2023-05-05T21:53:58.479Z,12.77
2023-05-05T21:56:34.251Z,12.74
2023-05-05T21:59:01.682Z,12.83
2023-05-05T22:01:35.817Z,12.97
2023-05-05T22:04:09.907Z,12.94
2023-05-05T22:06:33.590Z,12.82
2023-05-05T22:09:09.006Z,12.78
2023-05-05T22:11:42.782Z,12.80
2023-05-05T22:14:10.264Z,12.78
2023-05-05T22:16:46.193Z,12.77
2023-05-05T22:19:20.161Z,12.80
2023-05-05T22:21:54.619Z,12.87
2023-05-05T22:24:28.536Z,12.92
2023-05-05T22:27:02.933Z,12.89
2023-05-05T22:29:37.977Z,12.90
2023-05-05T22:32:11.962Z,12.86
2023-05-05T22:34:37.240Z,12.80
2023-05-05T22:37:11.019Z,12.78
2023-05-05T22:39:45.411Z,12.78
2023-05-05T22:42:20.421Z,12.79
2023-05-05T22:44:54.988Z,12.82
2023-05-05T22:47:29.976Z,12.82
2023-05-05T22:49:48.550Z,12.76
2023-05-05T22:52:24.252Z,12.74
2023-05-05T22:54:57.180Z,12.75
2023-05-05T22:57:23.600Z,12.76
2023-05-05T22:59:47.297Z,12.74
2023-05-05T23:02:20.747Z,12.82
2023-05-05T23:04:44.901Z,12.84
2023-05-05T23:07:18.814Z,12.81
2023-05-05T23:09:52.549Z,12.79
2023-05-05T23:12:26.820Z,12.78
2023-05-05T23:15:01.404Z,12.83
2023-05-05T23:17:35.478Z,12.85
2023-05-05T23:20:13.351Z,12.89
2023-05-05T23:22:47.872Z,12.93
2023-05-05T23:25:21.903Z,13.01
2023-05-05T23:27:55.231Z,12.99
2023-05-05T23:30:29.882Z,12.99
2023-05-05T23:33:03.899Z,13.05
2023-05-05T23:35:40.591Z,12.97
2023-05-05T23:38:15.855Z,12.91
2023-05-05T23:40:42.686Z,12.98
2023-05-05T23:43:04.715Z,13.00
2023-05-05T23:45:31.694Z,12.98
2023-05-05T23:47:58.674Z,12.95
2023-05-05T23:50:23.848Z,12.96
2023-05-05T23:53:00.399Z,13.00
2023-05-05T23:55:25.988Z,13.08
2023-05-05T23:57:59.453Z,13.05
